• Join FlightAware (Why Join?)
  • Login
  • US Flag 
08:05AM EDT


 

Airport Tracker/Info


-or-


 

Live Flight TrackerFlight Track Log ✈ GPD20 ✈ 03-Sep-2013 ✈ KACK - KHPN

Flight Track Log - Related Links

Times and Time Zones

All times are in EDT time to prevent confusion due to time zone crossing. See the GPD20 flight status page for this flight to view local times or setup timezone preferences in your user account.

Time Position Orientation Groundspeed Altitude Reporting Facility
EDT Latitude Longitude Course Direction KTS MPH feet Rate Location/Type
07:05AM 41.3145 -70.3247 288° West  Level FlightAware Approximate
07:06AM 41.3259 -70.3703 288° West  Level FlightAware Approximate
07:07AM 41.3373 -70.4158 288° West  Level FlightAware Approximate
07:08AM 41.3487 -70.4614 288° West  Level FlightAware Approximate
07:09AM 41.3601 -70.5070 288° West  Level FlightAware Approximate
07:10AM 41.3715 -70.5525 288° West  Level FlightAware Approximate
07:11AM 41.3829 -70.5981 288° West  Level FlightAware Approximate
07:12AM 41.3729 -70.6439 252° West  Level FlightAware Approximate
07:13AM 41.3620 -70.6897 252° West  Level FlightAware Approximate
07:13AM 41.2064 -70.7681 252° West 154 177 6,000  Level Boston Center
07:14AM 41.3510 -70.7355 252° West  Level FlightAware Approximate
07:14AM 41.2047 -70.8042 267° West 155 178 5,900  Level Boston Center
07:15AM 41.3401 -70.7812 252° West  Level FlightAware Approximate
07:15AM 41.2036 -70.8592 268° West 152 175 6,000  Level Boston Center
07:16AM 41.3291 -70.8270 252° West  Level FlightAware Approximate
07:16AM 41.2000 -70.9172 265° West 154 177 6,000  Level Boston Center
07:17AM 41.3181 -70.8727 252° West  Level FlightAware Approximate
07:17AM 41.1989 -70.9725 268° West 155 178 6,000  Level Boston Center
07:18AM 41.3071 -70.9184 252° West  Level FlightAware Approximate
07:18AM 41.1933 -71.0278 262° West 154 177 6,000  Level Boston Center
07:19AM 41.1919 -71.0911 268° West 152 175 6,000  Level Boston Center
07:20AM 41.1883 -71.1464 265° West 153 176 6,000  Level Boston Center
07:21AM 41.1869 -71.1989 268° West 154 177 6,000  Level Boston Center
07:22AM 41.1853 -71.2542 268° West 152 175 6,000 -60 Level Boston Center
07:23AM 41.1797 -71.3094 262° West 149 171 5,900  Descending Boston Center
07:24AM 41.1781 -71.3644 268° West 151 174 6,000  Climbing Boston Center
07:25AM 41.1725 -71.4225 263° West 153 176 6,000  Level Boston Center
07:26AM 41.1708 -71.4778 268° West 153 176 6,000 -60 Level Boston Center
07:27AM 41.1692 -71.5356 268° West 152 175 5,900  Descending Boston Center
07:28AM 41.1636 -71.6019 264° West 148 170 6,000  Climbing Boston Center
07:29AM 41.1639 -71.6517 270° West 149 171 6,000  Level Boston Center
07:30AM 41.1622 -71.7094 268° West 151 174 6,100  Climbing Boston Center
07:31AM 41.1625 -71.7675 270° West 150 173 6,100  Level Boston Center
07:32AM 41.1628 -71.8197 270° West 125 144 6,100 -60 Level Boston Center
07:33AM 41.1589 -71.8778 265° West 156 180 6,000  Descending Boston Center
07:35AM 41.1551 -71.9510 266° West  Level FlightAware Approximate
07:36AM 41.1667 -72.0333 266° West 148 170 6,100  Level New York TRACON
07:37AM 41.1500 -72.1000 252° West 150 173 6,100  Level New York TRACON
07:39AM 41.1500 -72.2000 270° West 148 170 6,100  Level New York TRACON
07:40AM 41.1500 -72.2500 270° West 150 173 6,100  Level New York TRACON
07:41AM 41.1500 -72.3167 270° West 150 173 6,100  Level New York TRACON
07:42AM 41.1500 -72.3667 270° West 152 175 6,100  Level New York TRACON
07:43AM 41.1500 -72.4167 270° West 150 173 6,100  Level New York TRACON
07:44AM 41.1500 -72.4667 270° West 145 167 6,100 -60 Level New York TRACON
07:45AM 41.1500 -72.5167 270° West 147 169 6,000 -60 Descending New York TRACON
07:46AM 41.1500 -72.5833 270° West 149 171 6,000  Level New York TRACON
07:47AM 41.1500 -72.6333 270° West 148 170 6,000  Level New York TRACON
07:48AM 41.1500 -72.6833 270° West 147 169 6,000  Level New York TRACON
07:49AM 41.1500 -72.7333 270° West 144 166 6,000  Level New York TRACON
07:50AM 41.1500 -72.7833 270° West 144 166 6,100  Climbing New York TRACON
07:51AM 41.1500 -72.8333 270° West 146 168 6,100 -60 Level New York TRACON
07:52AM 41.1500 -72.8833 270° West 147 169 6,000 -60 Descending New York TRACON
07:53AM 41.1500 -72.9333 270° West 148 170 6,000  Level New York TRACON
07:54AM 41.1667 -73.0000 288° West 149 171 6,000 -60 Level New York TRACON
07:54AM 41.1667 -73.0500 270° West 150 173 5,900 -420 Descending New York TRACON
07:55AM 41.1667 -73.1000 270° West 167 192 5,300 -600 Descending New York TRACON
07:56AM 41.1667 -73.1667 270° West 165 190 4,800 -600 Descending New York TRACON
07:57AM 41.1667 -73.2167 270° West 165 190 4,200 -480 Descending New York TRACON
07:58AM 41.1667 -73.2833 270° West 153 176 4,000 -120 Descending New York TRACON
07:59AM 41.1833 -73.3333 294° West 147 169 4,000  Level New York TRACON
08:00AM 41.1833 -73.3833 270° West 149 171 4,000  Level New York TRACON
08:01AM 41.2000 -73.4333 294° West 160 184 4,000  Level New York TRACON
08:02AM 41.2000 -73.4833 270° West 161 185 4,000 -300 Level New York TRACON
08:03AM 41.2167 -73.5500 288° West 171 197 3,500 -540 Descending New York TRACON
08:04AM 41.2167 -73.6167 270° West 164 189 3,000 -300 Descending New York TRACON
08:05AM 41.2167 -73.6667 270° West 162 186 3,000 -240 Level New York TRACON
08:06AM 41.2000 -73.7333 252° West 174 200 2,600 -540 Descending New York TRACON
08:07AM 41.1833 -73.7833 246° West 179 206 2,000 -300 Descending New York TRACON
08:08AM 41.1500 -73.7667 159° South 152 175 2,000 -360 Level New York TRACON
08:09AM 41.1167 -73.7333 143° Southeast 126 145 1,300 -660 Descending New York TRACON
08:10AM 41.0833 -73.7167 159° South 127 146 700 -600 Descending New York TRACON
08:12AM 41.0667 -73.7000 169° South  Level FlightAware Approximate